Time;durP1;ratioP1;P1;durP2;ratioP2;P2;SDS_P1;SDS_P2;PMS_P1;PMS_P2;Temp;Humidity;BMP_temperature;BMP_pressure;BME280_temperature;BME280_humidity;BME280_pressure;Samples;Min_cycle;Max_cycle;Signal;HPM_P1;HPM_P2
2022/05/10 00:01:43;;;;;;;5.20;1.98;;;14.70;99.90;;;;;;5031532;28;20060;-77
2022/05/10 00:04:11;;;;;;;4.38;2.10;;;14.70;99.90;;;;;;5031295;28;20489;-77
2022/05/10 00:06:44;;;;;;;3.72;1.80;;;14.70;99.90;;;;;;5030020;28;20037;-77
2022/05/10 00:09:12;;;;;;;3.15;1.65;;;14.70;99.90;;;;;;5031338;28;20116;-77
2022/05/10 00:11:38;;;;;;;3.63;2.10;;;14.60;99.90;;;;;;5031089;28;20090;-77
2022/05/10 00:14:04;;;;;;;3.03;1.83;;;14.60;99.90;;;;;;5030951;28;20330;-78
2022/05/10 00:16:33;;;;;;;3.03;1.85;;;14.60;99.90;;;;;;5030831;28;20666;-77
2022/05/10 00:18:59;;;;;;;3.22;1.80;;;14.60;99.90;;;;;;5030672;28;20070;-77
2022/05/10 00:21:25;;;;;;;6.28;2.10;;;14.70;99.90;;;;;;5030802;28;20037;-77
2022/05/10 00:23:52;;;;;;;3.50;2.10;;;14.70;99.90;;;;;;5030725;28;20037;-77
2022/05/10 00:26:18;;;;;;;4.03;1.75;;;14.60;99.90;;;;;;5030831;28;20057;-77
2022/05/10 00:28:45;;;;;;;6.00;2.15;;;14.60;99.90;;;;;;5030589;28;20442;-76
2022/05/10 00:31:12;;;;;;;3.40;2.17;;;14.50;99.90;;;;;;5030722;28;20033;-77
2022/05/10 00:33:39;;;;;;;5.50;2.30;;;14.50;99.90;;;;;;5030847;28;20075;-77
2022/05/10 00:36:07;;;;;;;3.88;2.20;;;14.40;99.90;;;;;;5030264;28;20033;-77
2022/05/10 00:38:36;;;;;;;4.60;2.30;;;14.40;99.90;;;;;;5030814;28;20449;-77
2022/05/10 00:41:23;;;;;;;4.57;2.15;;;14.30;99.90;;;;;;5030659;28;20044;-76
2022/05/10 00:44:01;;;;;;;4.15;2.38;;;14.30;99.90;;;;;;5030702;28;20087;-77
2022/05/10 00:46:38;;;;;;;4.22;2.00;;;14.20;99.90;;;;;;5030355;28;20073;-77
2022/05/10 00:49:07;;;;;;;6.00;2.35;;;14.30;99.90;;;;;;5030567;28;20198;-77
2022/05/10 00:51:47;;;;;;;4.40;2.30;;;14.30;99.90;;;;;;5030673;28;20480;-77
2022/05/10 00:54:34;;;;;;;3.90;2.28;;;14.30;99.90;;;;;;5028831;28;20165;-77
2022/05/10 00:57:27;;;;;;;4.88;2.67;;;14.30;99.90;;;;;;5022924;28;20436;-77
2022/05/10 01:00:07;;;;;;;4.20;2.10;;;14.30;99.90;;;;;;5030651;28;20021;-77
2022/05/10 01:03:07;;;;;;;3.45;2.10;;;14.20;99.90;;;;;;5030261;28;20021;-77
2022/05/10 01:05:38;;;;;;;3.97;2.33;;;14.30;99.90;;;;;;5030302;28;20033;-77
2022/05/10 01:08:26;;;;;;;3.63;2.08;;;14.30;99.90;;;;;;5030551;28;20415;-77
2022/05/10 01:11:21;;;;;;;4.55;2.25;;;14.20;99.90;;;;;;5030162;28;20433;-77
2022/05/10 01:14:04;;;;;;;4.47;2.33;;;14.20;99.90;;;;;;5030387;28;20064;-77
2022/05/10 01:16:30;;;;;;;4.93;2.33;;;14.20;99.90;;;;;;5030080;28;20029;-77
2022/05/10 01:18:56;;;;;;;5.07;2.25;;;14.10;99.90;;;;;;5030251;28;20033;-77
2022/05/10 01:21:42;;;;;;;3.92;2.50;;;14.10;99.90;;;;;;5028812;28;20048;-78
2022/05/10 01:24:31;;;;;;;3.45;2.30;;;14.10;99.90;;;;;;5030493;28;20370;-77
2022/05/10 01:27:15;;;;;;;3.65;2.13;;;14.00;99.90;;;;;;5028519;28;20335;-77
2022/05/10 01:30:04;;;;;;;5.22;2.28;;;14.00;99.90;;;;;;5031949;28;20038;-77
2022/05/10 01:35:27;;;;;;;3.72;2.22;;;14.00;99.90;;;;;;5034090;28;20133;-77
2022/05/10 01:38:01;;;;;;;4.60;2.65;;;14.00;99.90;;;;;;5033895;28;20075;-77
2022/05/10 01:40:36;;;;;;;3.85;2.40;;;14.00;99.90;;;;;;5033862;28;20064;-78
2022/05/10 01:43:11;;;;;;;4.05;2.50;;;13.90;99.90;;;;;;5033871;28;20048;-77
2022/05/10 01:45:44;;;;;;;3.83;2.22;;;13.90;99.90;;;;;;5033546;28;20049;-77
2022/05/10 01:48:14;;;;;;;6.93;2.40;;;14.00;99.90;;;;;;5033672;28;20087;-77
2022/05/10 01:51:02;;;;;;;5.82;2.33;;;14.00;99.90;;;;;;5034044;28;20030;-77
2022/05/10 01:53:35;;;;;;;4.30;2.42;;;14.00;99.90;;;;;;5033903;28;20036;-77
2022/05/10 01:56:09;;;;;;;4.47;2.38;;;13.90;99.90;;;;;;5032194;28;20021;-77
2022/05/10 01:58:38;;;;;;;4.60;2.28;;;13.90;99.90;;;;;;5033762;28;20041;-77
2022/05/10 02:01:10;;;;;;;5.95;2.20;;;13.90;99.90;;;;;;5033865;28;20556;-77
2022/05/10 02:03:51;;;;;;;4.47;2.40;;;13.90;99.90;;;;;;5033657;28;20036;-77
2022/05/10 02:06:39;;;;;;;4.00;2.30;;;13.90;99.90;;;;;;5033825;28;20049;-77
2022/05/10 02:09:16;;;;;;;4.65;2.00;;;14.00;99.90;;;;;;5033644;28;20026;-77
2022/05/10 02:12:01;;;;;;;3.95;2.40;;;14.00;99.90;;;;;;5031937;28;20025;-78
2022/05/10 02:14:38;;;;;;;6.95;2.50;;;14.00;99.90;;;;;;5033319;28;20459;-78
2022/05/10 02:17:13;;;;;;;4.10;2.30;;;14.00;99.90;;;;;;5033314;28;20029;-77
2022/05/10 02:20:03;;;;;;;4.63;2.30;;;14.00;99.90;;;;;;5033458;28;20093;-77
2022/05/10 02:22:43;;;;;;;5.18;2.22;;;14.10;99.90;;;;;;5032970;28;20141;-77
2022/05/10 02:25:24;;;;;;;4.55;2.22;;;14.10;99.90;;;;;;5033359;28;20492;-78
2022/05/10 02:28:19;;;;;;;4.90;2.10;;;14.10;99.90;;;;;;5032901;28;20033;-77
2022/05/10 02:30:46;;;;;;;5.70;2.45;;;14.10;99.90;;;;;;5033146;28;20127;-77
2022/05/10 02:33:15;;;;;;;4.40;1.88;;;14.10;99.90;;;;;;5032926;28;20033;-77
2022/05/10 02:35:44;;;;;;;4.68;2.28;;;14.20;99.90;;;;;;5032924;28;20358;-77
2022/05/10 02:38:13;;;;;;;4.28;2.15;;;14.20;99.90;;;;;;5031243;28;20048;-77
2022/05/10 02:40:41;;;;;;;4.93;2.40;;;14.20;99.90;;;;;;5032889;28;20033;-77
2022/05/10 02:43:22;;;;;;;5.90;2.15;;;14.10;99.90;;;;;;5032708;28;20028;-77
2022/05/10 02:45:48;;;;;;;4.55;2.30;;;14.10;99.90;;;;;;5032625;28;20056;-77
2022/05/10 02:48:36;;;;;;;3.63;2.00;;;14.10;99.90;;;;;;5032535;28;20026;-77
2022/05/10 02:51:03;;;;;;;5.38;1.92;;;14.10;99.90;;;;;;5032295;28;20516;-78
2022/05/10 02:53:30;;;;;;;3.67;2.20;;;14.20;99.90;;;;;;5032957;28;20073;-77
2022/05/10 02:56:06;;;;;;;3.88;2.17;;;14.10;99.90;;;;;;5032908;28;20132;-77
2022/05/10 02:58:47;;;;;;;3.63;2.13;;;14.10;99.90;;;;;;5033285;28;20476;-77
2022/05/10 03:01:26;;;;;;;3.65;2.15;;;14.10;99.90;;;;;;5033218;28;20022;-77
2022/05/10 03:03:52;;;;;;;4.35;2.30;;;14.00;99.90;;;;;;5033093;28;20033;-77
2022/05/10 03:06:21;;;;;;;4.87;2.00;;;14.10;99.90;;;;;;5032496;28;20040;-77
2022/05/10 03:08:48;;;;;;;4.82;1.95;;;14.10;99.90;;;;;;5033053;28;20037;-77
2022/05/10 03:11:14;;;;;;;;;;;14.00;99.90;;;;;;5033466;28;20033;-77
2022/05/10 03:13:41;;;;;;;3.88;2.20;;;14.00;99.90;;;;;;5032889;28;19905;-78
2022/05/10 03:16:08;;;;;;;3.03;1.60;;;13.90;99.90;;;;;;5032999;28;20535;-78
2022/05/10 03:18:34;;;;;;;5.72;2.03;;;13.90;99.90;;;;;;5032967;28;20102;-77
2022/05/10 03:21:00;;;;;;;3.63;2.22;;;13.90;99.90;;;;;;5032667;28;20022;-77
2022/05/10 03:23:27;;;;;;;4.73;2.37;;;13.90;99.90;;;;;;5032972;28;20036;-76
2022/05/10 03:25:56;;;;;;;;;;;13.90;99.90;;;;;;5033133;28;20018;-77
2022/05/10 03:28:23;;;;;;;3.47;2.20;;;13.80;99.90;;;;;;5032994;28;20012;-78
2022/05/10 03:30:49;;;;;;;4.93;2.38;;;13.80;99.90;;;;;;5033209;28;20398;-77
2022/05/10 03:33:16;;;;;;;4.88;2.28;;;13.70;99.90;;;;;;5032238;28;20040;-78
2022/05/10 03:35:42;;;;;;;4.07;2.20;;;13.70;99.90;;;;;;5030281;28;20029;-79
2022/05/10 03:38:08;;;;;;;3.03;1.97;;;13.60;99.90;;;;;;5030789;28;20033;-78
2022/05/10 03:40:35;;;;;;;4.20;2.53;;;13.60;99.90;;;;;;5031170;28;20036;-78
2022/05/10 03:43:01;;;;;;;4.93;2.40;;;13.60;99.90;;;;;;5030741;28;20284;-74
2022/05/10 03:45:27;;;;;;;3.08;2.15;;;13.60;99.90;;;;;;5032179;28;20132;-78
2022/05/10 03:47:54;;;;;;;6.60;2.78;;;13.60;99.90;;;;;;5031542;28;20030;-77
2022/05/10 03:50:23;;;;;;;4.18;2.65;;;13.60;99.90;;;;;;5032364;28;20036;-78
2022/05/10 03:52:50;;;;;;;3.55;2.20;;;13.70;99.90;;;;;;5027986;28;20076;-78
2022/05/10 03:55:22;;;;;;;3.97;2.47;;;13.70;99.90;;;;;;5026934;28;20100;-78
2022/05/10 03:57:49;;;;;;;3.70;2.38;;;13.80;99.90;;;;;;5020972;28;20199;-78
2022/05/10 04:00:25;;;;;;;6.80;2.95;;;13.80;99.90;;;;;;5022140;28;20112;-78
2022/05/10 04:02:52;;;;;;;6.90;2.40;;;13.80;99.90;;;;;;5021806;28;20438;-78
2022/05/10 04:05:19;;;;;;;5.60;2.63;;;13.90;99.90;;;;;;5019742;28;20018;-78
2022/05/10 04:07:45;;;;;;;4.60;2.80;;;13.80;99.90;;;;;;5028021;28;20025;-78
2022/05/10 04:10:13;;;;;;;5.13;2.67;;;13.90;99.90;;;;;;5030641;28;20426;-78
2022/05/10 04:12:40;;;;;;;4.55;3.00;;;13.80;99.90;;;;;;5030298;28;20018;-78
2022/05/10 04:15:10;;;;;;;5.32;2.78;;;13.80;99.90;;;;;;5032219;28;20132;-74
2022/05/10 04:17:36;;;;;;;4.07;2.40;;;13.80;99.90;;;;;;5032747;28;20037;-78
2022/05/10 04:20:03;;;;;;;5.07;2.70;;;13.80;99.90;;;;;;5033128;28;20022;-78
2022/05/10 04:22:29;;;;;;;5.35;2.30;;;13.80;99.90;;;;;;5032613;28;20029;-78
2022/05/10 04:24:55;;;;;;;3.40;2.38;;;13.80;99.90;;;;;;5032584;28;20028;-78
2022/05/10 04:27:21;;;;;;;6.67;2.77;;;13.90;99.90;;;;;;5032650;28;20064;-78
2022/05/10 04:29:47;;;;;;;3.97;2.60;;;13.90;99.90;;;;;;5032950;28;20057;-77
2022/05/10 04:32:13;;;;;;;5.67;2.90;;;13.90;99.90;;;;;;5032563;28;20095;-78
2022/05/10 04:34:39;;;;;;;5.45;2.70;;;14.00;99.90;;;;;;5032594;28;20533;-78
2022/05/10 04:37:05;;;;;;;5.40;2.57;;;14.10;99.90;;;;;;5032387;28;20036;-78
2022/05/10 04:41:24;;;;;;;5.03;2.60;;;14.10;99.90;;;;;;5031782;28;20026;-79
2022/05/10 04:42:17;;;;;;;5.88;2.58;;;14.10;99.90;;;;;;5032507;28;20033;-79
2022/05/10 04:44:43;;;;;;;5.68;2.78;;;14.10;99.90;;;;;;5032588;28;20041;-79
2022/05/10 04:47:09;;;;;;;4.97;2.33;;;14.20;99.90;;;;;;5032539;28;20037;-79
2022/05/10 04:49:35;;;;;;;4.53;2.17;;;14.20;99.90;;;;;;5032430;28;20021;-80
2022/05/10 04:52:02;;;;;;;6.93;2.88;;;14.20;99.90;;;;;;5032456;28;20343;-80
2022/05/10 04:54:28;;;;;;;6.63;2.78;;;14.20;99.90;;;;;;5032247;28;20095;-80
2022/05/10 04:56:54;;;;;;;4.57;2.10;;;14.30;99.90;;;;;;5030789;28;20026;-80
2022/05/10 04:59:20;;;;;;;3.63;2.10;;;14.40;99.90;;;;;;5032369;28;20128;-80
2022/05/10 05:01:46;;;;;;;4.10;2.30;;;14.40;99.90;;;;;;5032269;28;20101;-79
2022/05/10 05:04:12;;;;;;;4.10;2.20;;;14.40;99.90;;;;;;5033028;28;20049;-80
2022/05/10 05:06:39;;;;;;;6.30;2.77;;;14.50;99.90;;;;;;5036092;28;20116;-79
2022/05/10 05:09:06;;;;;;;3.90;2.03;;;14.60;99.90;;;;;;5036683;28;20462;-78
2022/05/10 05:11:32;;;;;;;;;;;14.90;99.90;;;;;;5037028;28;20060;-79
2022/05/10 05:13:59;;;;;;;3.50;1.88;;;15.40;99.90;;;;;;5036156;28;19930;-78
2022/05/10 05:16:25;;;;;;;3.47;1.95;;;16.00;99.90;;;;;;5036075;28;20044;-78
2022/05/10 05:18:51;;;;;;;3.25;2.00;;;17.10;99.90;;;;;;5036459;28;20030;-77
2022/05/10 05:21:17;;;;;;;6.55;1.90;;;18.10;99.90;;;;;;5036328;28;20021;-76
2022/05/10 05:23:44;;;;;;;5.70;2.30;;;19.30;99.90;;;;;;5036333;28;20052;-77
2022/05/10 05:26:11;;;;;;;4.47;2.20;;;20.10;99.90;;;;;;5036389;28;20053;-75
2022/05/10 05:28:37;;;;;;;4.32;2.20;;;20.30;99.90;;;;;;5035685;28;20030;-74
2022/05/10 05:31:04;;;;;;;6.25;2.10;;;20.20;99.90;;;;;;5035352;28;20051;-76
2022/05/10 05:33:30;;;;;;;7.13;2.33;;;20.70;99.90;;;;;;5033709;28;20030;-75
2022/05/10 05:35:56;;;;;;;6.97;2.33;;;21.00;99.90;;;;;;5035647;28;20032;-76
2022/05/10 05:38:24;;;;;;;6.78;2.17;;;21.60;99.90;;;;;;5035619;28;20079;-74
2022/05/10 05:40:50;;;;;;;5.32;2.00;;;21.60;99.90;;;;;;5034077;28;20143;-78
2022/05/10 05:43:20;;;;;;;3.70;1.98;;;21.90;99.90;;;;;;5035404;28;20399;-77
2022/05/10 05:45:49;;;;;;;4.22;1.88;;;22.20;99.90;;;;;;5034564;28;20127;-77
2022/05/10 05:48:15;;;;;;;5.95;2.33;;;23.10;99.90;;;;;;5035286;28;20036;-78
2022/05/10 05:50:47;;;;;;;6.07;2.10;;;23.10;99.90;;;;;;5033142;28;20500;-78
2022/05/10 05:53:13;;;;;;;3.45;1.65;;;22.80;99.90;;;;;;5034010;28;20033;-78
2022/05/10 05:55:41;;;;;;;6.50;2.00;;;23.80;99.90;;;;;;5034065;28;20208;-77
2022/05/10 05:58:08;;;;;;;8.10;2.20;;;23.70;99.90;;;;;;5034277;28;20124;-78
2022/05/10 06:00:34;;;;;;;3.67;2.05;;;24.20;99.90;;;;;;5032480;28;20572;-78
2022/05/10 06:03:01;;;;;;;7.18;1.83;;;24.30;99.90;;;;;;5033774;28;20045;-78
2022/05/10 06:05:27;;;;;;;5.47;1.77;;;24.90;99.90;;;;;;5034154;28;20494;-78
2022/05/10 06:07:53;;;;;;;3.42;1.60;;;25.30;99.90;;;;;;5033992;28;20030;-78
2022/05/10 06:10:20;;;;;;;4.90;1.60;;;26.20;99.90;;;;;;5033750;28;20204;-80
2022/05/10 06:12:45;;;;;;;;;;;26.60;99.90;;;;;;5034279;28;20063;-76
2022/05/10 06:15:13;;;;;;;;;;;27.20;99.80;;;;;;5033684;28;19940;-77
2022/05/10 06:17:41;;;;;;;4.05;1.55;;;27.20;99.70;;;;;;5034336;28;19913;-76
2022/05/10 06:20:09;;;;;;;3.38;1.40;;;27.10;99.40;;;;;;5034797;28;20403;-76
2022/05/10 06:22:35;;;;;;;3.33;1.67;;;27.30;98.40;;;;;;5034355;28;20044;-77
2022/05/10 06:25:03;;;;;;;3.75;1.65;;;26.90;98.40;;;;;;5034947;28;20021;-77
2022/05/10 06:27:29;;;;;;;3.15;1.45;;;26.30;98.70;;;;;;5034909;28;20030;-76
2022/05/10 06:29:56;;;;;;;2.78;1.40;;;26.70;98.80;;;;;;5034743;28;20021;-76
2022/05/10 06:32:25;;;;;;;3.17;1.60;;;26.60;99.10;;;;;;5034837;28;20029;-76
2022/05/10 06:34:52;;;;;;;4.60;1.52;;;26.10;98.70;;;;;;5034235;28;20022;-76
2022/05/10 06:40:13;;;;;;;4.47;1.30;;;28.20;96.70;;;;;;5034368;28;20068;-76
2022/05/10 06:42:40;;;;;;;5.35;2.00;;;27.20;97.10;;;;;;5033682;28;20036;-77
2022/05/10 06:45:10;;;;;;;5.75;1.58;;;26.50;98.00;;;;;;5014279;28;20099;-77
2022/05/10 06:47:43;;;;;;;4.35;1.80;;;27.70;97.50;;;;;;5012835;28;20088;-76
2022/05/10 06:50:12;;;;;;;4.70;2.00;;;27.10;95.90;;;;;;5014300;28;20109;-76
2022/05/10 06:52:39;;;;;;;10.18;1.70;;;26.80;96.00;;;;;;5014429;28;20022;-76
2022/05/10 06:55:05;;;;;;;6.72;1.42;;;26.60;95.40;;;;;;5014382;28;20033;-76
2022/05/10 06:57:31;;;;;;;4.43;1.58;;;27.30;96.00;;;;;;5017840;28;20037;-76
2022/05/10 07:00:12;;;;;;;2.80;1.38;;;28.30;94.80;;;;;;5033926;28;20133;-76
2022/05/10 07:02:39;;;;;;;4.18;1.60;;;27.60;94.40;;;;;;5030851;28;20129;-77
2022/05/10 07:05:06;;;;;;;3.38;1.40;;;27.90;95.40;;;;;;5013999;28;20049;-76
2022/05/10 07:07:32;;;;;;;3.20;1.40;;;28.70;94.00;;;;;;5019789;28;20126;-77
2022/05/10 07:09:58;;;;;;;5.20;1.50;;;28.10;93.60;;;;;;5032771;28;20560;-74
2022/05/10 07:12:24;;;;;;;3.78;1.58;;;27.90;94.10;;;;;;5028094;28;20139;-71
2022/05/10 07:14:52;;;;;;;3.80;1.40;;;27.80;93.40;;;;;;5029607;28;20489;-73
2022/05/10 07:17:19;;;;;;;4.35;1.58;;;28.40;92.70;;;;;;5033861;28;20037;-76
2022/05/10 07:19:45;;;;;;;4.10;1.70;;;27.70;94.00;;;;;;5015900;28;20121;-77
2022/05/10 07:22:11;;;;;;;3.55;1.65;;;27.30;93.80;;;;;;5014102;28;20033;-77
2022/05/10 07:24:37;;;;;;;7.82;1.77;;;27.10;94.70;;;;;;5013628;28;20026;-77
2022/05/10 07:27:03;;;;;;;5.32;1.55;;;26.90;94.10;;;;;;5012771;28;20032;-77
2022/05/10 07:29:29;;;;;;;;;;;26.30;94.70;;;;;;5014003;28;20018;-77
2022/05/10 07:31:55;;;;;;;;;;;26.20;95.40;;;;;;5013889;28;19912;-77
2022/05/10 07:34:21;;;;;;;2.60;1.30;;;26.00;95.40;;;;;;5013578;28;19905;-77
2022/05/10 07:36:47;;;;;;;5.10;1.77;;;26.00;95.50;;;;;;5013445;28;20077;-76
2022/05/10 07:39:18;;;;;;;4.57;1.80;;;26.10;94.90;;;;;;5013613;28;20030;-77
2022/05/10 07:41:44;;;;;;;6.20;1.60;;;26.40;95.20;;;;;;5013860;28;20026;-77
2022/05/10 07:44:11;;;;;;;;;;;26.00;94.30;;;;;;5013784;28;20527;-77
2022/05/10 07:46:37;;;;;;;7.22;1.60;;;25.30;95.60;;;;;;5012888;28;19917;-76
2022/05/10 07:49:04;;;;;;;;;;;25.10;96.00;;;;;;5013860;28;20030;-77
2022/05/10 07:51:30;;;;;;;5.60;1.67;;;25.40;96.00;;;;;;5013287;28;19991;-77
2022/05/10 07:53:56;;;;;;;6.68;1.80;;;25.70;96.00;;;;;;5013156;28;20504;-77
2022/05/10 07:56:24;;;;;;;;;;;25.90;95.00;;;;;;5013539;28;20034;-77
2022/05/10 07:58:51;;;;;;;7.68;2.55;;;26.10;95.90;;;;;;5013038;28;19963;-77
2022/05/10 08:01:18;;;;;;;7.00;2.13;;;25.80;95.60;;;;;;5013206;28;20029;-77
2022/05/10 08:03:44;;;;;;;5.68;2.28;;;26.00;95.80;;;;;;5013102;28;20018;-77
2022/05/10 08:06:10;;;;;;;6.35;1.90;;;26.40;95.90;;;;;;5013616;28;20037;-77
2022/05/10 08:08:37;;;;;;;6.80;2.15;;;26.40;95.20;;;;;;5011673;28;20038;-77
2022/05/10 08:11:04;;;;;;;7.30;1.88;;;26.70;95.20;;;;;;5012949;28;20105;-77
2022/05/10 08:13:33;;;;;;;5.47;2.08;;;26.70;95.70;;;;;;5011788;28;20026;-77
2022/05/10 08:16:00;;;;;;;8.82;2.10;;;26.70;95.10;;;;;;5012801;28;20018;-76
2022/05/10 08:18:27;;;;;;;7.00;1.90;;;26.90;95.60;;;;;;5012788;28;20068;-76
2022/05/10 08:20:57;;;;;;;6.43;2.10;;;26.90;95.80;;;;;;5012990;28;20486;-77
2022/05/10 08:23:27;;;;;;;10.57;1.80;;;27.10;95.20;;;;;;5013150;28;20109;-77
2022/05/10 08:25:55;;;;;;;3.72;1.98;;;27.20;95.30;;;;;;5012787;28;20101;-77
2022/05/10 08:28:46;;;;;;;7.63;1.98;;;27.30;95.10;;;;;;5012582;28;20026;-77
2022/05/10 08:31:12;;;;;;;11.38;2.05;;;27.30;95.20;;;;;;5012616;28;20236;-78
2022/05/10 08:33:41;;;;;;;8.40;2.20;;;27.50;94.70;;;;;;5012881;28;20033;-77
2022/05/10 08:36:08;;;;;;;6.40;2.13;;;27.00;94.20;;;;;;5012823;28;20076;-76
2022/05/10 08:38:35;;;;;;;6.65;1.98;;;27.00;94.10;;;;;;5012277;28;20041;-76
2022/05/10 08:41:15;;;;;;;8.55;2.15;;;27.00;93.90;;;;;;5012470;28;20054;-76
2022/05/10 08:43:49;;;;;;;9.02;1.90;;;26.90;94.10;;;;;;5012808;28;20026;-79
2022/05/10 08:46:23;;;;;;;7.53;2.15;;;27.20;94.00;;;;;;5012421;28;20184;-77
2022/05/10 08:49:06;;;;;;;5.75;1.52;;;27.10;92.70;;;;;;5012949;28;20033;-78
2022/05/10 08:51:33;;;;;;;6.88;1.90;;;26.90;93.50;;;;;;5010369;28;20029;-77
2022/05/10 08:54:45;;;;;;;7.18;1.73;;;27.10;93.50;;;;;;5011942;28;20118;-77
2022/05/10 08:57:14;;;;;;;9.82;1.90;;;26.90;92.90;;;;;;5012055;28;20103;-77
2022/05/10 09:00:17;;;;;;;8.57;1.85;;;26.90;93.40;;;;;;5011659;28;20029;-76
2022/05/10 09:02:47;;;;;;;5.63;1.90;;;26.60;93.50;;;;;;5012161;28;20038;-76
2022/05/10 09:05:23;;;;;;;7.13;2.03;;;26.70;94.00;;;;;;5010011;28;20305;-76
2022/05/10 09:08:13;;;;;;;5.95;1.90;;;26.80;93.20;;;;;;5011846;28;20034;-76
2022/05/10 09:10:53;;;;;;;5.20;1.83;;;26.70;93.50;;;;;;5012016;28;20022;-76
2022/05/10 09:13:22;;;;;;;6.05;1.92;;;26.90;93.10;;;;;;5011995;28;20105;-76
2022/05/10 09:16:00;;;;;;;7.90;1.80;;;26.70;93.30;;;;;;5011939;28;20026;-76
2022/05/10 09:18:29;;;;;;;6.93;1.95;;;26.60;93.60;;;;;;5011505;28;20126;-75
2022/05/10 09:21:27;;;;;;;6.32;2.10;;;26.60;93.60;;;;;;5011531;28;20113;-76
2022/05/10 09:24:16;;;;;;;5.68;2.05;;;26.20;93.60;;;;;;5011057;28;20030;-76
2022/05/10 09:26:46;;;;;;;5.28;1.80;;;25.50;94.20;;;;;;5011458;28;20034;-75
2022/05/10 09:29:27;;;;;;;7.10;1.90;;;25.40;94.70;;;;;;5009766;28;20458;-76
2022/05/10 09:34:53;;;;;;;5.93;1.85;;;25.50;94.40;;;;;;5012026;28;20088;-76
2022/05/10 09:37:39;;;;;;;7.65;1.88;;;25.60;94.10;;;;;;5011340;28;20478;-77
2022/05/10 09:40:25;;;;;;;8.68;2.05;;;25.50;94.10;;;;;;5011595;28;20189;-76
2022/05/10 09:42:54;;;;;;;3.92;1.88;;;25.40;93.90;;;;;;5010942;28;20038;-76
2022/05/10 09:45:26;;;;;;;8.82;2.72;;;24.80;95.00;;;;;;5010901;28;20081;-76
2022/05/10 09:48:09;;;;;;;6.55;2.33;;;24.30;95.00;;;;;;5011224;28;20030;-76
2022/05/10 09:50:44;;;;;;;7.22;2.53;;;23.70;96.00;;;;;;5012643;28;20041;-76
2022/05/10 09:53:22;;;;;;;4.53;2.00;;;23.60;96.40;;;;;;5020711;28;20040;-76
2022/05/10 09:56:05;;;;;;;5.38;2.10;;;23.60;96.50;;;;;;5028484;28;20423;-76
2022/05/10 09:58:52;;;;;;;5.85;2.13;;;23.50;96.70;;;;;;5034496;28;20131;-77
2022/05/10 10:01:37;;;;;;;5.57;1.90;;;23.60;96.70;;;;;;5034170;28;20021;-76
2022/05/10 10:04:22;;;;;;;12.75;6.50;;;23.70;96.90;;;;;;5033577;28;20489;-76
2022/05/10 10:07:13;;;;;;;7.40;2.42;;;23.70;96.70;;;;;;5033743;28;20026;-76
2022/05/10 10:09:45;;;;;;;5.68;2.40;;;23.30;97.30;;;;;;5033986;28;20426;-73
2022/05/10 10:12:40;;;;;;;8.25;2.63;;;23.30;97.80;;;;;;5034550;28;20029;-76
2022/05/10 10:15:35;;;;;;;6.45;2.40;;;23.20;97.70;;;;;;5033897;28;20045;-77
2022/05/10 10:18:06;;;;;;;8.73;2.35;;;23.30;98.10;;;;;;5033283;28;20041;-76
2022/05/10 10:20:50;;;;;;;7.70;2.10;;;23.30;97.80;;;;;;5032881;28;20039;-77
2022/05/10 10:23:31;;;;;;;4.70;1.95;;;23.30;98.00;;;;;;5034024;28;20040;-76
2022/05/10 10:26:05;;;;;;;7.05;2.15;;;23.10;97.90;;;;;;5033868;28;20541;-76
2022/05/10 10:28:50;;;;;;;6.50;2.10;;;23.10;98.10;;;;;;5033632;28;20031;-77
2022/05/10 10:31:24;;;;;;;4.70;1.88;;;23.10;98.10;;;;;;5032816;28;20139;-77
2022/05/10 10:34:00;;;;;;;6.35;2.10;;;23.00;98.40;;;;;;5033463;28;20449;-77
2022/05/10 10:36:32;;;;;;;5.07;2.40;;;23.00;98.40;;;;;;5033656;28;20056;-77
2022/05/10 10:39:18;;;;;;;6.22;2.20;;;23.00;98.40;;;;;;5033931;28;20053;-77
2022/05/10 10:41:53;;;;;;;5.63;2.28;;;23.30;98.60;;;;;;5033631;28;20029;-77
2022/05/10 10:44:26;;;;;;;6.22;2.10;;;23.50;98.40;;;;;;5033400;28;20032;-77
2022/05/10 10:47:18;;;;;;;6.47;2.42;;;23.90;98.10;;;;;;5033644;28;20385;-77
2022/05/10 10:50:21;;;;;;;5.50;1.90;;;24.20;97.30;;;;;;5033643;28;20033;-77
2022/05/10 10:52:47;;;;;;;6.82;2.22;;;23.60;97.30;;;;;;5012118;28;20045;-76
2022/05/10 10:55:18;;;;;;;6.88;2.25;;;23.50;97.80;;;;;;5022363;28;20053;-77
2022/05/10 10:58:10;;;;;;;7.30;2.17;;;23.40;97.90;;;;;;5033164;28;20060;-76
2022/05/10 11:01:06;;;;;;;4.75;2.00;;;23.40;98.60;;;;;;5030886;28;20377;-77
2022/05/10 11:03:52;;;;;;;6.65;2.38;;;23.30;98.10;;;;;;5031800;28;20076;-77
2022/05/10 11:06:46;;;;;;;6.70;2.15;;;23.30;98.10;;;;;;5032160;28;20304;-75
2022/05/10 11:09:47;;;;;;;7.10;2.20;;;23.10;97.80;;;;;;5031238;28;20115;-75
2022/05/10 11:12:19;;;;;;;8.00;2.10;;;23.10;98.30;;;;;;5026907;28;20025;-76
2022/05/10 11:15:01;;;;;;;4.72;1.90;;;23.10;98.60;;;;;;5032094;28;20025;-75
2022/05/10 11:18:03;;;;;;;6.82;2.00;;;23.40;98.30;;;;;;5032387;28;20085;-72
2022/05/10 11:21:03;;;;;;;10.38;2.40;;;23.30;98.20;;;;;;5032260;28;20089;-73
2022/05/10 11:24:13;;;;;;;7.47;2.40;;;23.10;98.00;;;;;;5033125;28;20069;-72
2022/05/10 11:26:54;;;;;;;5.55;1.83;;;22.80;99.00;;;;;;5033617;28;20369;-72
2022/05/10 11:29:38;;;;;;;5.50;2.00;;;22.90;98.80;;;;;;5033355;28;20416;-73
2022/05/10 11:32:42;;;;;;;13.38;2.47;;;22.80;99.60;;;;;;5033213;28;20025;-72
2022/05/10 11:35:17;;;;;;;5.28;2.13;;;22.80;99.90;;;;;;4972027;28;20499;-72
2022/05/10 11:38:28;;;;;;;7.78;2.38;;;22.80;99.90;;;;;;4972212;28;20101;-73
2022/05/10 11:41:06;;;;;;;5.43;2.13;;;22.80;99.90;;;;;;4972050;28;20035;-72
2022/05/10 11:44:15;;;;;;;7.95;2.30;;;22.70;99.90;;;;;;4972946;28;20045;-73
2022/05/10 11:46:46;;;;;;;14.30;2.42;;;22.80;99.90;;;;;;4971527;28;20081;-74
2022/05/10 11:49:42;;;;;;;11.15;2.10;;;23.00;99.90;;;;;;4971988;28;20535;-73
2022/05/10 11:52:19;;;;;;;9.23;1.98;;;23.20;99.60;;;;;;4971813;28;20050;-73
2022/05/10 11:55:06;;;;;;;6.82;2.20;;;23.00;99.10;;;;;;4971278;28;20057;-73
2022/05/10 11:57:34;;;;;;;8.55;1.92;;;23.30;98.20;;;;;;4970996;28;20042;-73
2022/05/10 12:00:27;;;;;;;7.65;2.00;;;23.40;98.30;;;;;;4953408;28;20023;-69
2022/05/10 12:02:54;;;;;;;7.25;2.10;;;23.60;97.60;;;;;;4971274;28;20066;-73
2022/05/10 12:05:23;;;;;;;6.72;2.08;;;23.60;97.80;;;;;;4971327;28;20113;-73
2022/05/10 12:08:00;;;;;;;8.40;2.40;;;23.60;98.00;;;;;;4971298;28;20045;-73
2022/05/10 12:10:34;;;;;;;5.38;1.98;;;23.70;97.30;;;;;;5032294;28;20131;-73
2022/05/10 12:23:00;;;;;;;5.82;1.90;;;23.60;97.40;;;;;;5033134;28;20532;-74
2022/05/10 12:25:51;;;;;;;7.30;1.67;;;23.70;97.50;;;;;;5033388;28;20025;-74
2022/05/10 12:28:41;;;;;;;7.30;2.17;;;23.80;97.00;;;;;;5033276;28;20101;-72
2022/05/10 12:31:32;;;;;;;6.50;2.00;;;23.80;97.20;;;;;;5032974;28;20035;-74
2022/05/10 12:34:08;;;;;;;5.07;1.80;;;23.90;97.00;;;;;;5032606;28;20132;-74
2022/05/10 12:36:42;;;;;;;8.52;2.00;;;24.10;97.20;;;;;;5033088;28;20026;-74
2022/05/10 12:39:29;;;;;;;6.18;2.30;;;24.20;96.60;;;;;;5032702;28;20033;-74
2022/05/10 12:42:22;;;;;;;6.43;1.90;;;23.90;96.80;;;;;;5032876;28;20044;-69
2022/05/10 12:45:14;;;;;;;7.32;1.88;;;24.10;97.30;;;;;;5032764;28;20041;-74
2022/05/10 12:48:03;;;;;;;7.70;1.90;;;24.20;96.50;;;;;;5005322;28;20052;-74
2022/05/10 12:50:29;;;;;;;6.78;1.90;;;24.20;96.70;;;;;;5032688;28;20024;-74
2022/05/10 12:52:55;;;;;;;7.50;1.77;;;24.30;96.90;;;;;;5032700;28;20029;-73
2022/05/10 12:55:33;;;;;;;4.57;1.75;;;24.50;96.60;;;;;;5032703;28;20112;-73
2022/05/10 12:58:19;;;;;;;7.03;2.58;;;24.00;96.30;;;;;;5032225;28;20041;-74
2022/05/10 13:00:55;;;;;;;5.47;2.00;;;23.80;96.80;;;;;;5032152;28;20025;-74
2022/05/10 13:03:32;;;;;;;8.00;1.92;;;24.00;96.80;;;;;;5032218;28;20021;-74
2022/05/10 13:06:19;;;;;;;5.20;2.10;;;24.20;96.30;;;;;;5031625;28;20124;-73
2022/05/10 13:08:50;;;;;;;8.43;1.80;;;24.40;96.50;;;;;;5032232;28;20061;-74
2022/05/10 13:11:21;;;;;;;9.70;2.00;;;24.50;96.30;;;;;;5032123;28;20024;-74
2022/05/10 13:13:51;;;;;;;7.18;1.92;;;24.70;95.90;;;;;;5031921;28;20082;-73
2022/05/10 13:16:17;;;;;;;5.97;2.03;;;24.80;96.10;;;;;;5031597;28;20032;-74
2022/05/10 13:18:46;;;;;;;7.82;2.03;;;24.90;95.60;;;;;;5032225;28;20061;-74
2022/05/10 13:21:21;;;;;;;6.13;1.77;;;24.90;95.30;;;;;;5031942;28;20413;-74
2022/05/10 13:23:47;;;;;;;7.30;2.45;;;25.00;95.80;;;;;;5032308;28;20185;-74
2022/05/10 13:26:15;;;;;;;10.13;2.35;;;25.00;95.50;;;;;;5034878;28;20378;-75
2022/05/10 13:28:58;;;;;;;7.88;2.35;;;25.10;95.20;;;;;;5036395;28;20048;-74
2022/05/10 13:31:32;;;;;;;8.32;1.90;;;25.00;94.90;;;;;;5035674;28;20075;-74
2022/05/10 13:34:13;;;;;;;7.05;1.60;;;25.10;94.70;;;;;;5036416;28;20104;-75
2022/05/10 13:36:43;;;;;;;6.45;1.70;;;25.10;94.50;;;;;;5036277;28;20588;-74
2022/05/10 13:39:13;;;;;;;5.18;1.90;;;25.40;94.20;;;;;;5036023;28;20037;-74
2022/05/10 13:41:39;;;;;;;7.00;1.70;;;24.90;94.40;;;;;;5035602;28;20017;-74